createdAt,value
2024-01-16T00:02:18.594Z,100960.66
2024-01-16T00:05:20.823Z,100961.13
2024-01-16T00:07:52.544Z,100954.28
2024-01-16T00:10:22.952Z,100962.16
2024-01-16T00:12:52.798Z,100966.41
2024-01-16T00:16:07.213Z,100956.59
2024-01-16T00:24:56.783Z,100944.56
2024-01-16T00:27:27.139Z,100955.75
2024-01-16T00:30:00.617Z,100942.88
2024-01-16T00:32:29.962Z,100930.88
2024-01-16T00:35:13.100Z,100926.72
2024-01-16T00:37:44.218Z,100926.53
2024-01-16T00:40:14.054Z,100926.38
2024-01-16T00:42:45.422Z,100919.38
2024-01-16T00:45:14.657Z,100926.22
2024-01-16T00:47:44.402Z,100919.13
2024-01-16T00:50:15.661Z,100911.09
2024-01-16T00:52:46.706Z,100915.44
2024-01-16T00:55:15.941Z,100912.78
2024-01-16T00:57:45.443Z,100910.94
2024-01-16T01:00:17.415Z,100907.41
2024-01-16T01:02:46.242Z,100906.56
2024-01-16T01:05:18.243Z,100899.47
2024-01-16T01:07:53.216Z,100897.69
2024-01-16T01:10:22.131Z,100898.72
2024-01-16T01:12:53.195Z,100898.88
2024-01-16T01:15:36.679Z,100894.59
2024-01-16T01:18:08.923Z,100893.66
2024-01-16T01:20:44.457Z,100901.59
2024-01-16T01:23:40.099Z,100896.16
2024-01-16T01:26:11.623Z,100896.22
2024-01-16T01:28:44.541Z,100896.22
2024-01-16T01:31:14.645Z,100885.88
2024-01-16T01:33:44.313Z,100890.41
2024-01-16T01:36:12.937Z,100888.63
2024-01-16T01:38:43.224Z,100886.75
2024-01-16T01:41:13.320Z,100888.63
2024-01-16T01:43:43.816Z,100876.41
2024-01-16T01:46:19.088Z,100873.81
2024-01-16T01:48:53.342Z,100877.31
2024-01-16T01:51:22.020Z,100877.25
2024-01-16T01:53:54.289Z,100869.22
2024-01-16T01:56:24.674Z,100867.44
2024-01-16T01:59:03.273Z,100867.28
2024-01-16T02:01:35.764Z,100854.81
2024-01-16T02:04:06.367Z,100860.63
2024-01-16T02:06:35.506Z,100856.84
2024-01-16T02:09:11.746Z,100860.34
2024-01-16T02:11:40.980Z,100854.16
2024-01-16T02:20:18.072Z,100856.69
2024-01-16T02:28:36.510Z,100857.13
2024-01-16T02:31:08.296Z,100862.19
2024-01-16T02:33:39.979Z,100857.75
2024-01-16T02:39:14.253Z,100848.59
2024-01-16T02:42:05.449Z,100853.63
2024-01-16T02:44:36.771Z,100848.13
2024-01-16T02:47:11.660Z,100842.69
2024-01-16T02:49:46.640Z,100840.88
2024-01-16T02:52:16.397Z,100833.78
2024-01-16T02:54:47.615Z,100840.63
2024-01-16T02:57:21.911Z,100833.47
2024-01-16T02:59:54.614Z,100835.91
2024-01-16T03:02:24.871Z,100827.13
2024-01-16T03:04:55.667Z,100820.00
2024-01-16T03:07:26.297Z,100819.06
2024-01-16T03:09:55.295Z,100811.91
2024-01-16T03:12:27.441Z,100819.75
2024-01-16T03:14:58.006Z,100810.94
2024-01-16T03:17:28.206Z,100801.22
2024-01-16T03:20:05.743Z,100809.16
2024-01-16T03:22:34.682Z,100800.25
2024-01-16T03:25:04.823Z,100800.19
2024-01-16T03:27:35.267Z,100786.84
2024-01-16T03:35:46.729Z,100777.69
2024-01-16T03:41:01.793Z,100787.06
2024-01-16T03:43:41.011Z,100778.25
2024-01-16T03:46:10.697Z,100777.13
2024-01-16T03:48:42.318Z,100775.44
2024-01-16T03:57:26.143Z,100782.06
2024-01-16T04:00:26.818Z,100774.69
2024-01-16T04:03:19.074Z,100762.22
2024-01-16T04:05:55.048Z,100762.59
2024-01-16T04:08:27.772Z,100770.38
2024-01-16T04:10:58.112Z,100764.97
2024-01-16T04:13:41.121Z,100754.09
2024-01-16T04:16:12.083Z,100762.59
2024-01-16T04:18:47.060Z,100755.50
2024-01-16T04:21:20.927Z,100744.81
2024-01-16T04:23:50.716Z,100746.53
2024-01-16T04:26:22.213Z,100748.13
2024-01-16T04:28:53.944Z,100749.75
2024-01-16T04:31:24.552Z,100745.38
2024-01-16T04:34:37.838Z,100742.91
2024-01-16T04:37:50.896Z,100749.34
2024-01-16T04:40:33.525Z,100743.41
2024-01-16T04:46:14.607Z,100745.16
2024-01-16T04:55:05.975Z,100729.09
2024-01-16T04:58:18.504Z,100723.59
2024-01-16T05:01:21.031Z,100721.69
2024-01-16T05:10:06.416Z,100703.13
2024-01-16T05:12:38.372Z,100694.22
2024-01-16T05:18:35.632Z,100685.03
2024-01-16T05:21:13.856Z,100684.97
2024-01-16T05:23:50.492Z,100685.69
2024-01-16T05:26:20.782Z,100687.22
2024-01-16T05:29:13.247Z,100677.44
2024-01-16T05:38:07.400Z,100679.81
2024-01-16T05:40:42.783Z,100687.03
2024-01-16T05:43:22.943Z,100683.59
2024-01-16T05:48:40.258Z,100686.25
2024-01-16T05:51:17.474Z,100689.03
2024-01-16T05:53:52.009Z,100685.41
2024-01-16T05:56:23.235Z,100673.00
2024-01-16T05:58:54.163Z,100687.03
2024-01-16T06:01:30.195Z,100683.25
2024-01-16T06:07:04.233Z,100677.72
2024-01-16T06:09:48.244Z,100675.84
2024-01-16T06:12:28.612Z,100673.09
2024-01-16T06:15:16.897Z,100670.53
2024-01-16T06:17:52.423Z,100668.63
2024-01-16T06:23:57.527Z,100653.72
2024-01-16T06:26:59.769Z,100656.50
2024-01-16T06:32:41.490Z,100650.75
2024-01-16T06:38:17.055Z,100635.59
2024-01-16T06:41:01.580Z,100639.66
2024-01-16T06:43:54.570Z,100630.59
2024-01-16T06:52:24.260Z,100627.38
2024-01-16T06:55:01.774Z,100626.47
2024-01-16T06:57:34.969Z,100622.84
2024-01-16T07:00:19.100Z,100618.50
2024-01-16T07:03:07.962Z,100613.00
2024-01-16T07:05:52.596Z,100609.19
2024-01-16T07:08:34.621Z,100605.59
2024-01-16T07:14:13.600Z,100599.16
2024-01-16T07:17:05.062Z,100607.97
2024-01-16T07:22:37.015Z,100599.16
2024-01-16T07:28:22.724Z,100595.28
2024-01-16T07:31:05.788Z,100592.53
2024-01-16T07:34:25.596Z,100587.88
2024-01-16T07:40:57.450Z,100575.28
2024-01-16T07:43:55.301Z,100575.38
2024-01-16T07:49:24.894Z,100582.69
2024-01-16T07:51:55.220Z,100576.72
2024-01-16T07:54:25.873Z,100575.84
2024-01-16T07:57:03.279Z,100585.63
2024-01-16T07:59:39.886Z,100584.78
2024-01-16T08:02:29.322Z,100584.78
2024-01-16T08:51:54.147Z,100573.28
2024-01-16T08:54:41.172Z,100565.88
2024-01-16T08:57:18.430Z,100567.38
2024-01-16T08:59:54.882Z,100557.44
2024-01-16T09:02:30.639Z,100550.31
2024-01-16T09:05:45.965Z,100543.22
2024-01-16T09:08:40.238Z,100541.50
2024-01-16T09:16:38.270Z,100545.06
2024-01-16T09:22:22.681Z,100545.97
2024-01-16T09:28:18.602Z,100549.50
2024-01-16T09:30:48.966Z,100548.94
2024-01-16T09:36:01.691Z,100545.75
2024-01-16T09:38:32.560Z,100552.94
2024-01-16T09:41:04.874Z,100548.59
2024-01-16T09:43:38.479Z,100541.59
2024-01-16T09:46:09.904Z,100542.53
2024-01-16T09:48:38.947Z,100549.34
2024-01-16T09:51:09.275Z,100554.66
2024-01-16T09:53:39.988Z,100532.41
2024-01-16T09:56:14.852Z,100542.06
2024-01-16T09:58:47.061Z,100537.50
2024-01-16T10:01:17.199Z,100530.38
2024-01-16T10:03:50.374Z,100531.16
2024-01-16T10:06:22.866Z,100523.94
2024-01-16T10:08:52.520Z,100533.50
2024-01-16T10:11:22.257Z,100530.75
2024-01-16T10:13:54.806Z,100524.50
2024-01-16T10:16:26.081Z,100531.19
2024-01-16T10:19:10.076Z,100525.81
2024-01-16T10:21:38.932Z,100522.94
2024-01-16T10:24:14.266Z,100508.53
2024-01-16T10:27:02.659Z,100508.16
2024-01-16T10:29:43.408Z,100496.28
2024-01-16T10:32:31.681Z,100498.41
2024-01-16T10:35:09.814Z,100490.25
2024-01-16T10:37:45.767Z,100492.47
2024-01-16T10:40:22.499Z,100483.38
2024-01-16T10:43:01.583Z,100480.28
2024-01-16T10:45:34.018Z,100482.63
2024-01-16T10:48:08.724Z,100485.97
2024-01-16T10:50:38.977Z,100483.00
2024-01-16T10:53:10.081Z,100479.19
2024-01-16T10:55:52.230Z,100474.31
2024-01-16T10:58:24.316Z,100464.22
2024-01-16T11:00:57.314Z,100465.50
2024-01-16T11:03:32.051Z,100460.72
2024-01-16T11:06:02.247Z,100455.69
2024-01-16T11:08:48.014Z,100443.78
2024-01-16T11:11:19.348Z,100435.41
2024-01-16T11:13:50.111Z,100438.47
2024-01-16T11:16:25.515Z,100424.22
2024-01-16T11:33:54.953Z,100406.78
2024-01-16T12:05:27.574Z,100362.13
2024-01-16T20:07:07.938Z,99725.88
2024-01-16T22:28:02.059Z,99502.56
